Archival Weather

Chicago O'Hare International

Chicago, Illinois (KORD)

Report from: Sunday, February 5, 2023 8:51 AM CST
Current time: Tuesday, February 27, 2024 4:36 AM CST

Current weather – Weather history – Daily summaries
Weather forecast

Temperature2.8°C (37.0°F)
Wind chill-1.7°C (28.9°F)
Dew point-2.2°C (28.0°F)
Winds 11 kts (5.7 m/s, 12.7 mph) West-Southwest (250°)
Visibility10 mi. (16.1 km)
Clouds Few clouds 15,000 ft. (4,572 m)
Few clouds 25,000 ft. (7,620 m)
Altimeter29.84 in.Hg (1010 mB)
Relative humidity70 %
Density altitude-1,321 ft. (-403 m)
Sea-level pressure101.1 kPa (1011 mB, 29.85 in.Hg)
Remarks System requires maintenance
Automated weather observing station with precipitation discriminator
Pressure rising more quickly
Flight conditions Visual Meteorological Conditions
Raw dataKORD 051451Z 25011KT 10SM FEW150 FEW250 03/M02 A2984 RMK AO2 SLP109 T00281022 53001 $
An error has occurred. This application may no longer respond until reloaded. Reload 🗙